sensor_id;sensor_type;location;lat;lon;timestamp;P1;durP1;ratioP1;P2;durP2;ratioP2
14381;SDS011;7275;50.328;8.720;2022-11-20T00:00:51;11.13;;;9.20;;
14381;SDS011;7275;50.328;8.720;2022-11-20T00:03:21;10.53;;;9.27;;
14381;SDS011;7275;50.328;8.720;2022-11-20T00:05:49;9.97;;;8.80;;
14381;SDS011;7275;50.328;8.720;2022-11-20T00:08:17;12.40;;;9.83;;
14381;SDS011;7275;50.328;8.720;2022-11-20T00:10:44;10.63;;;8.43;;
14381;SDS011;7275;50.328;8.720;2022-11-20T00:13:12;9.07;;;7.60;;
14381;SDS011;7275;50.328;8.720;2022-11-20T00:15:39;9.87;;;8.87;;
14381;SDS011;7275;50.328;8.720;2022-11-20T00:18:07;9.30;;;8.03;;
14381;SDS011;7275;50.328;8.720;2022-11-20T00:20:36;10.33;;;8.80;;
14381;SDS011;7275;50.328;8.720;2022-11-20T00:23:03;9.90;;;8.63;;
14381;SDS011;7275;50.328;8.720;2022-11-20T00:25:33;10.53;;;9.07;;
14381;SDS011;7275;50.328;8.720;2022-11-20T00:28:01;8.40;;;7.37;;
14381;SDS011;7275;50.328;8.720;2022-11-20T00:30:29;10.10;;;8.50;;
14381;SDS011;7275;50.328;8.720;2022-11-20T00:32:56;10.33;;;8.10;;
14381;SDS011;7275;50.328;8.720;2022-11-20T00:35:24;10.43;;;8.60;;
14381;SDS011;7275;50.328;8.720;2022-11-20T00:37:53;9.70;;;8.40;;
14381;SDS011;7275;50.328;8.720;2022-11-20T00:40:21;8.43;;;7.57;;
14381;SDS011;7275;50.328;8.720;2022-11-20T00:42:48;8.77;;;7.77;;
14381;SDS011;7275;50.328;8.720;2022-11-20T00:45:16;13.10;;;9.83;;
14381;SDS011;7275;50.328;8.720;2022-11-20T00:47:43;11.03;;;8.77;;
14381;SDS011;7275;50.328;8.720;2022-11-20T00:50:11;10.53;;;9.30;;
14381;SDS011;7275;50.328;8.720;2022-11-20T00:52:38;11.10;;;8.80;;
14381;SDS011;7275;50.328;8.720;2022-11-20T00:55:08;8.60;;;7.60;;
14381;SDS011;7275;50.328;8.720;2022-11-20T00:57:35;10.57;;;8.77;;
14381;SDS011;7275;50.328;8.720;2022-11-20T01:00:03;11.07;;;8.83;;
14381;SDS011;7275;50.328;8.720;2022-11-20T01:02:31;10.67;;;8.77;;
14381;SDS011;7275;50.328;8.720;2022-11-20T01:04:59;12.23;;;9.07;;
14381;SDS011;7275;50.328;8.720;2022-11-20T01:07:26;9.33;;;8.37;;
14381;SDS011;7275;50.328;8.720;2022-11-20T01:09:54;9.17;;;7.73;;
14381;SDS011;7275;50.328;8.720;2022-11-20T01:12:30;11.10;;;8.60;;
14381;SDS011;7275;50.328;8.720;2022-11-20T01:14:58;11.47;;;9.53;;
14381;SDS011;7275;50.328;8.720;2022-11-20T01:17:25;11.17;;;9.27;;
14381;SDS011;7275;50.328;8.720;2022-11-20T01:19:53;9.67;;;8.20;;
14381;SDS011;7275;50.328;8.720;2022-11-20T01:22:21;9.63;;;8.60;;
14381;SDS011;7275;50.328;8.720;2022-11-20T01:24:48;11.77;;;8.57;;
14381;SDS011;7275;50.328;8.720;2022-11-20T01:27:16;13.67;;;9.87;;
14381;SDS011;7275;50.328;8.720;2022-11-20T01:29:44;13.63;;;9.53;;
14381;SDS011;7275;50.328;8.720;2022-11-20T01:32:12;13.60;;;9.47;;
14381;SDS011;7275;50.328;8.720;2022-11-20T01:34:40;12.53;;;9.67;;
14381;SDS011;7275;50.328;8.720;2022-11-20T01:37:07;11.67;;;9.07;;
14381;SDS011;7275;50.328;8.720;2022-11-20T01:39:35;11.60;;;9.10;;
14381;SDS011;7275;50.328;8.720;2022-11-20T01:42:02;10.97;;;8.50;;
14381;SDS011;7275;50.328;8.720;2022-11-20T01:44:53;9.77;;;8.40;;
14381;SDS011;7275;50.328;8.720;2022-11-20T01:47:27;8.90;;;7.73;;
14381;SDS011;7275;50.328;8.720;2022-11-20T01:50:00;10.10;;;8.27;;
14381;SDS011;7275;50.328;8.720;2022-11-20T01:52:32;10.33;;;7.93;;
14381;SDS011;7275;50.328;8.720;2022-11-20T01:55:04;8.83;;;7.70;;
14381;SDS011;7275;50.328;8.720;2022-11-20T01:57:34;9.33;;;8.00;;
14381;SDS011;7275;50.328;8.720;2022-11-20T02:00:05;8.57;;;7.10;;
14381;SDS011;7275;50.328;8.720;2022-11-20T02:02:35;9.43;;;7.40;;
14381;SDS011;7275;50.328;8.720;2022-11-20T02:05:09;9.03;;;7.17;;
14381;SDS011;7275;50.328;8.720;2022-11-20T02:07:42;8.30;;;7.47;;
14381;SDS011;7275;50.328;8.720;2022-11-20T02:10:10;9.20;;;7.97;;
14381;SDS011;7275;50.328;8.720;2022-11-20T02:12:38;9.57;;;8.37;;
14381;SDS011;7275;50.328;8.720;2022-11-20T02:15:25;9.97;;;8.00;;
14381;SDS011;7275;50.328;8.720;2022-11-20T02:17:55;9.70;;;7.80;;
14381;SDS011;7275;50.328;8.720;2022-11-20T02:20:23;9.47;;;7.63;;
14381;SDS011;7275;50.328;8.720;2022-11-20T02:22:53;10.83;;;8.13;;
14381;SDS011;7275;50.328;8.720;2022-11-20T02:25:24;9.17;;;8.10;;
14381;SDS011;7275;50.328;8.720;2022-11-20T02:27:54;8.60;;;7.57;;
14381;SDS011;7275;50.328;8.720;2022-11-20T02:30:22;10.50;;;8.47;;
14381;SDS011;7275;50.328;8.720;2022-11-20T02:32:49;10.30;;;8.43;;
14381;SDS011;7275;50.328;8.720;2022-11-20T02:35:39;8.90;;;7.33;;
14381;SDS011;7275;50.328;8.720;2022-11-20T02:38:09;9.03;;;7.47;;
14381;SDS011;7275;50.328;8.720;2022-11-20T02:40:38;8.90;;;8.00;;
14381;SDS011;7275;50.328;8.720;2022-11-20T02:43:07;9.40;;;7.83;;
14381;SDS011;7275;50.328;8.720;2022-11-20T02:45:34;9.90;;;8.20;;
14381;SDS011;7275;50.328;8.720;2022-11-20T02:48:02;10.93;;;8.23;;
14381;SDS011;7275;50.328;8.720;2022-11-20T02:50:30;9.77;;;8.10;;
14381;SDS011;7275;50.328;8.720;2022-11-20T02:52:57;8.77;;;7.67;;
14381;SDS011;7275;50.328;8.720;2022-11-20T02:55:25;9.00;;;7.50;;
14381;SDS011;7275;50.328;8.720;2022-11-20T02:57:53;10.27;;;8.23;;
14381;SDS011;7275;50.328;8.720;2022-11-20T03:00:21;10.23;;;8.77;;
14381;SDS011;7275;50.328;8.720;2022-11-20T03:02:49;10.73;;;8.80;;
14381;SDS011;7275;50.328;8.720;2022-11-20T03:05:17;10.47;;;8.90;;
14381;SDS011;7275;50.328;8.720;2022-11-20T03:07:44;9.50;;;7.90;;
14381;SDS011;7275;50.328;8.720;2022-11-20T03:10:12;9.10;;;8.13;;
14381;SDS011;7275;50.328;8.720;2022-11-20T03:12:39;9.60;;;7.80;;
14381;SDS011;7275;50.328;8.720;2022-11-20T03:15:09;10.83;;;8.80;;
14381;SDS011;7275;50.328;8.720;2022-11-20T03:17:37;10.23;;;8.33;;
14381;SDS011;7275;50.328;8.720;2022-11-20T03:20:06;11.00;;;9.00;;
14381;SDS011;7275;50.328;8.720;2022-11-20T03:22:35;12.63;;;9.37;;
14381;SDS011;7275;50.328;8.720;2022-11-20T03:25:02;9.30;;;8.20;;
14381;SDS011;7275;50.328;8.720;2022-11-20T03:27:31;10.67;;;8.43;;
14381;SDS011;7275;50.328;8.720;2022-11-20T03:30:00;9.90;;;8.33;;
14381;SDS011;7275;50.328;8.720;2022-11-20T03:32:29;10.77;;;9.07;;
14381;SDS011;7275;50.328;8.720;2022-11-20T03:34:57;10.53;;;8.50;;
14381;SDS011;7275;50.328;8.720;2022-11-20T03:37:24;9.37;;;8.37;;
14381;SDS011;7275;50.328;8.720;2022-11-20T03:39:52;11.37;;;8.87;;
14381;SDS011;7275;50.328;8.720;2022-11-20T03:42:19;10.20;;;8.67;;
14381;SDS011;7275;50.328;8.720;2022-11-20T03:45:05;9.87;;;8.57;;
14381;SDS011;7275;50.328;8.720;2022-11-20T03:47:34;11.60;;;9.10;;
14381;SDS011;7275;50.328;8.720;2022-11-20T03:50:02;9.97;;;8.87;;
14381;SDS011;7275;50.328;8.720;2022-11-20T03:52:30;11.93;;;8.93;;
14381;SDS011;7275;50.328;8.720;2022-11-20T03:54:58;10.73;;;8.73;;
14381;SDS011;7275;50.328;8.720;2022-11-20T03:57:25;10.77;;;8.83;;
14381;SDS011;7275;50.328;8.720;2022-11-20T03:59:53;9.70;;;8.07;;
14381;SDS011;7275;50.328;8.720;2022-11-20T04:02:20;9.53;;;8.30;;
14381;SDS011;7275;50.328;8.720;2022-11-20T04:04:49;10.97;;;9.40;;
14381;SDS011;7275;50.328;8.720;2022-11-20T04:07:17;10.23;;;8.30;;
14381;SDS011;7275;50.328;8.720;2022-11-20T04:09:44;11.97;;;9.30;;
14381;SDS011;7275;50.328;8.720;2022-11-20T04:12:12;11.47;;;9.77;;
14381;SDS011;7275;50.328;8.720;2022-11-20T04:14:40;10.27;;;9.17;;
14381;SDS011;7275;50.328;8.720;2022-11-20T04:17:07;11.40;;;9.23;;
14381;SDS011;7275;50.328;8.720;2022-11-20T04:19:35;9.00;;;7.93;;
14381;SDS011;7275;50.328;8.720;2022-11-20T04:22:03;10.57;;;8.33;;
14381;SDS011;7275;50.328;8.720;2022-11-20T04:24:31;11.03;;;9.10;;
14381;SDS011;7275;50.328;8.720;2022-11-20T04:26:59;8.63;;;7.70;;
14381;SDS011;7275;50.328;8.720;2022-11-20T04:29:26;10.27;;;8.57;;
14381;SDS011;7275;50.328;8.720;2022-11-20T04:31:54;9.67;;;8.07;;
14381;SDS011;7275;50.328;8.720;2022-11-20T04:34:21;10.37;;;8.60;;
14381;SDS011;7275;50.328;8.720;2022-11-20T04:36:49;10.47;;;8.57;;
14381;SDS011;7275;50.328;8.720;2022-11-20T04:39:18;10.80;;;8.93;;
14381;SDS011;7275;50.328;8.720;2022-11-20T04:41:46;10.00;;;8.27;;
14381;SDS011;7275;50.328;8.720;2022-11-20T04:44:13;11.17;;;9.20;;
14381;SDS011;7275;50.328;8.720;2022-11-20T04:46:41;10.47;;;8.73;;
14381;SDS011;7275;50.328;8.720;2022-11-20T04:49:10;10.80;;;9.30;;
14381;SDS011;7275;50.328;8.720;2022-11-20T04:51:38;11.63;;;9.40;;
14381;SDS011;7275;50.328;8.720;2022-11-20T04:54:06;13.27;;;9.70;;
14381;SDS011;7275;50.328;8.720;2022-11-20T04:56:35;12.20;;;9.63;;
14381;SDS011;7275;50.328;8.720;2022-11-20T04:59:02;11.90;;;9.07;;
14381;SDS011;7275;50.328;8.720;2022-11-20T05:01:30;10.93;;;8.77;;
14381;SDS011;7275;50.328;8.720;2022-11-20T05:03:58;10.53;;;9.03;;
14381;SDS011;7275;50.328;8.720;2022-11-20T05:06:26;10.47;;;8.70;;
14381;SDS011;7275;50.328;8.720;2022-11-20T05:08:53;9.30;;;8.13;;
14381;SDS011;7275;50.328;8.720;2022-11-20T05:11:21;10.53;;;8.63;;
14381;SDS011;7275;50.328;8.720;2022-11-20T05:13:50;10.43;;;9.27;;
14381;SDS011;7275;50.328;8.720;2022-11-20T05:16:19;10.37;;;8.50;;
14381;SDS011;7275;50.328;8.720;2022-11-20T05:18:49;10.70;;;8.53;;
14381;SDS011;7275;50.328;8.720;2022-11-20T05:21:17;9.93;;;8.10;;
14381;SDS011;7275;50.328;8.720;2022-11-20T05:23:45;10.13;;;8.43;;
14381;SDS011;7275;50.328;8.720;2022-11-20T05:26:14;10.97;;;9.40;;
14381;SDS011;7275;50.328;8.720;2022-11-20T05:28:44;11.53;;;9.93;;
14381;SDS011;7275;50.328;8.720;2022-11-20T05:31:13;11.97;;;9.80;;
14381;SDS011;7275;50.328;8.720;2022-11-20T05:33:50;11.80;;;10.33;;
14381;SDS011;7275;50.328;8.720;2022-11-20T05:36:18;10.13;;;8.57;;
14381;SDS011;7275;50.328;8.720;2022-11-20T05:38:46;9.10;;;7.97;;
14381;SDS011;7275;50.328;8.720;2022-11-20T05:41:17;12.17;;;9.70;;
14381;SDS011;7275;50.328;8.720;2022-11-20T05:43:46;11.87;;;10.07;;
14381;SDS011;7275;50.328;8.720;2022-11-20T05:46:17;11.47;;;9.47;;
14381;SDS011;7275;50.328;8.720;2022-11-20T05:48:54;11.70;;;9.90;;
14381;SDS011;7275;50.328;8.720;2022-11-20T05:51:22;12.10;;;10.23;;
14381;SDS011;7275;50.328;8.720;2022-11-20T05:53:50;11.50;;;9.50;;
14381;SDS011;7275;50.328;8.720;2022-11-20T05:56:18;13.00;;;10.70;;
14381;SDS011;7275;50.328;8.720;2022-11-20T05:58:47;13.17;;;10.37;;
14381;SDS011;7275;50.328;8.720;2022-11-20T06:01:19;13.53;;;10.10;;
14381;SDS011;7275;50.328;8.720;2022-11-20T06:03:49;12.00;;;9.67;;
14381;SDS011;7275;50.328;8.720;2022-11-20T06:06:17;13.10;;;10.83;;
14381;SDS011;7275;50.328;8.720;2022-11-20T06:08:46;12.60;;;10.43;;
14381;SDS011;7275;50.328;8.720;2022-11-20T06:11:15;14.53;;;11.80;;
14381;SDS011;7275;50.328;8.720;2022-11-20T06:13:43;13.13;;;10.93;;
14381;SDS011;7275;50.328;8.720;2022-11-20T06:16:12;12.70;;;10.70;;
14381;SDS011;7275;50.328;8.720;2022-11-20T06:18:43;15.60;;;11.87;;
14381;SDS011;7275;50.328;8.720;2022-11-20T06:21:11;13.13;;;10.13;;
14381;SDS011;7275;50.328;8.720;2022-11-20T06:23:41;12.47;;;10.13;;
14381;SDS011;7275;50.328;8.720;2022-11-20T06:26:12;11.60;;;10.23;;
14381;SDS011;7275;50.328;8.720;2022-11-20T06:28:40;12.27;;;10.30;;
14381;SDS011;7275;50.328;8.720;2022-11-20T06:31:09;14.07;;;11.03;;
14381;SDS011;7275;50.328;8.720;2022-11-20T06:33:37;15.40;;;11.90;;
14381;SDS011;7275;50.328;8.720;2022-11-20T06:36:06;14.40;;;11.40;;
14381;SDS011;7275;50.328;8.720;2022-11-20T06:38:36;14.30;;;11.40;;
14381;SDS011;7275;50.328;8.720;2022-11-20T06:41:04;13.50;;;11.43;;
14381;SDS011;7275;50.328;8.720;2022-11-20T06:43:33;13.53;;;10.90;;
14381;SDS011;7275;50.328;8.720;2022-11-20T06:46:01;14.13;;;11.30;;
14381;SDS011;7275;50.328;8.720;2022-11-20T06:48:29;14.23;;;11.80;;
14381;SDS011;7275;50.328;8.720;2022-11-20T06:50:57;14.53;;;11.93;;
14381;SDS011;7275;50.328;8.720;2022-11-20T06:53:26;13.60;;;11.23;;
14381;SDS011;7275;50.328;8.720;2022-11-20T06:55:55;15.90;;;12.07;;
14381;SDS011;7275;50.328;8.720;2022-11-20T06:58:25;15.67;;;12.00;;
14381;SDS011;7275;50.328;8.720;2022-11-20T07:00:53;14.10;;;11.70;;
14381;SDS011;7275;50.328;8.720;2022-11-20T07:03:24;14.30;;;11.70;;
14381;SDS011;7275;50.328;8.720;2022-11-20T07:05:53;15.40;;;11.87;;
14381;SDS011;7275;50.328;8.720;2022-11-20T07:08:22;16.07;;;12.23;;
14381;SDS011;7275;50.328;8.720;2022-11-20T07:10:52;14.47;;;11.00;;
14381;SDS011;7275;50.328;8.720;2022-11-20T07:13:19;16.77;;;12.60;;
14381;SDS011;7275;50.328;8.720;2022-11-20T07:15:47;15.13;;;11.77;;
14381;SDS011;7275;50.328;8.720;2022-11-20T07:18:15;14.17;;;11.17;;
14381;SDS011;7275;50.328;8.720;2022-11-20T07:20:43;14.57;;;12.07;;
14381;SDS011;7275;50.328;8.720;2022-11-20T07:23:10;17.17;;;12.87;;
14381;SDS011;7275;50.328;8.720;2022-11-20T07:25:38;13.67;;;11.20;;
14381;SDS011;7275;50.328;8.720;2022-11-20T07:28:07;13.97;;;11.57;;
14381;SDS011;7275;50.328;8.720;2022-11-20T07:30:36;14.17;;;11.80;;
14381;SDS011;7275;50.328;8.720;2022-11-20T07:33:04;14.97;;;11.83;;
14381;SDS011;7275;50.328;8.720;2022-11-20T07:35:32;13.97;;;11.20;;
14381;SDS011;7275;50.328;8.720;2022-11-20T07:37:59;15.10;;;11.73;;
14381;SDS011;7275;50.328;8.720;2022-11-20T07:40:27;13.43;;;10.37;;
14381;SDS011;7275;50.328;8.720;2022-11-20T07:42:55;15.77;;;12.40;;
14381;SDS011;7275;50.328;8.720;2022-11-20T07:45:24;15.57;;;11.80;;
14381;SDS011;7275;50.328;8.720;2022-11-20T07:47:51;15.87;;;12.20;;
14381;SDS011;7275;50.328;8.720;2022-11-20T07:50:19;16.77;;;13.17;;
14381;SDS011;7275;50.328;8.720;2022-11-20T07:52:47;15.80;;;12.77;;
14381;SDS011;7275;50.328;8.720;2022-11-20T07:55:14;18.00;;;13.43;;
14381;SDS011;7275;50.328;8.720;2022-11-20T07:57:42;16.63;;;12.77;;
14381;SDS011;7275;50.328;8.720;2022-11-20T08:00:10;17.27;;;13.00;;
14381;SDS011;7275;50.328;8.720;2022-11-20T08:02:40;17.87;;;13.67;;
14381;SDS011;7275;50.328;8.720;2022-11-20T08:05:08;16.17;;;12.77;;
14381;SDS011;7275;50.328;8.720;2022-11-20T08:07:37;13.30;;;11.37;;
14381;SDS011;7275;50.328;8.720;2022-11-20T08:10:06;14.10;;;11.60;;
14381;SDS011;7275;50.328;8.720;2022-11-20T08:12:34;15.27;;;12.43;;
14381;SDS011;7275;50.328;8.720;2022-11-20T08:15:19;15.03;;;11.90;;
14381;SDS011;7275;50.328;8.720;2022-11-20T08:17:48;16.67;;;13.73;;
14381;SDS011;7275;50.328;8.720;2022-11-20T08:20:36;14.90;;;12.00;;
14381;SDS011;7275;50.328;8.720;2022-11-20T08:23:05;19.00;;;13.17;;
14381;SDS011;7275;50.328;8.720;2022-11-20T08:25:34;16.13;;;12.63;;
14381;SDS011;7275;50.328;8.720;2022-11-20T08:28:03;17.70;;;13.97;;
14381;SDS011;7275;50.328;8.720;2022-11-20T08:30:45;17.50;;;13.97;;
14381;SDS011;7275;50.328;8.720;2022-11-20T08:33:14;18.57;;;14.60;;
14381;SDS011;7275;50.328;8.720;2022-11-20T08:35:43;17.90;;;13.87;;
14381;SDS011;7275;50.328;8.720;2022-11-20T08:38:11;17.33;;;13.87;;
14381;SDS011;7275;50.328;8.720;2022-11-20T08:40:38;17.63;;;13.83;;
14381;SDS011;7275;50.328;8.720;2022-11-20T08:43:06;18.73;;;13.77;;
14381;SDS011;7275;50.328;8.720;2022-11-20T08:45:34;18.30;;;14.33;;
14381;SDS011;7275;50.328;8.720;2022-11-20T08:48:02;16.57;;;13.53;;
14381;SDS011;7275;50.328;8.720;2022-11-20T08:50:32;17.73;;;14.03;;
14381;SDS011;7275;50.328;8.720;2022-11-20T08:53:02;16.90;;;13.27;;
14381;SDS011;7275;50.328;8.720;2022-11-20T08:55:30;19.03;;;14.33;;
14381;SDS011;7275;50.328;8.720;2022-11-20T08:57:57;19.03;;;14.63;;
14381;SDS011;7275;50.328;8.720;2022-11-20T09:00:25;17.90;;;14.13;;
14381;SDS011;7275;50.328;8.720;2022-11-20T09:02:52;20.67;;;15.50;;
14381;SDS011;7275;50.328;8.720;2022-11-20T09:05:20;19.03;;;15.17;;
14381;SDS011;7275;50.328;8.720;2022-11-20T09:07:49;19.27;;;14.67;;
14381;SDS011;7275;50.328;8.720;2022-11-20T09:10:16;18.77;;;14.40;;
14381;SDS011;7275;50.328;8.720;2022-11-20T09:12:50;19.20;;;14.90;;
14381;SDS011;7275;50.328;8.720;2022-11-20T09:15:18;19.20;;;14.77;;
14381;SDS011;7275;50.328;8.720;2022-11-20T09:17:50;17.67;;;14.00;;
14381;SDS011;7275;50.328;8.720;2022-11-20T09:20:18;15.87;;;12.97;;
14381;SDS011;7275;50.328;8.720;2022-11-20T09:22:45;18.00;;;13.50;;
14381;SDS011;7275;50.328;8.720;2022-11-20T09:25:14;17.57;;;13.97;;
14381;SDS011;7275;50.328;8.720;2022-11-20T09:27:42;18.00;;;14.60;;
14381;SDS011;7275;50.328;8.720;2022-11-20T09:30:12;17.00;;;14.17;;
14381;SDS011;7275;50.328;8.720;2022-11-20T09:32:40;18.37;;;14.70;;
14381;SDS011;7275;50.328;8.720;2022-11-20T09:35:08;16.87;;;13.77;;
14381;SDS011;7275;50.328;8.720;2022-11-20T09:37:37;19.27;;;14.70;;
14381;SDS011;7275;50.328;8.720;2022-11-20T09:40:05;16.43;;;12.87;;
14381;SDS011;7275;50.328;8.720;2022-11-20T09:42:37;16.13;;;13.37;;
14381;SDS011;7275;50.328;8.720;2022-11-20T09:45:12;16.63;;;13.70;;
14381;SDS011;7275;50.328;8.720;2022-11-20T09:47:49;15.67;;;13.47;;
14381;SDS011;7275;50.328;8.720;2022-11-20T09:50:28;16.17;;;13.17;;
14381;SDS011;7275;50.328;8.720;2022-11-20T09:53:04;17.57;;;14.60;;
14381;SDS011;7275;50.328;8.720;2022-11-20T09:55:39;16.87;;;13.80;;
14381;SDS011;7275;50.328;8.720;2022-11-20T09:58:12;18.67;;;15.13;;
14381;SDS011;7275;50.328;8.720;2022-11-20T10:00:47;17.10;;;14.17;;
14381;SDS011;7275;50.328;8.720;2022-11-20T10:03:16;16.97;;;14.03;;
14381;SDS011;7275;50.328;8.720;2022-11-20T10:05:49;17.43;;;13.47;;
14381;SDS011;7275;50.328;8.720;2022-11-20T10:08:21;15.77;;;13.27;;
14381;SDS011;7275;50.328;8.720;2022-11-20T10:10:52;16.63;;;13.47;;
14381;SDS011;7275;50.328;8.720;2022-11-20T10:13:30;17.33;;;14.10;;
14381;SDS011;7275;50.328;8.720;2022-11-20T10:16:13;17.13;;;13.77;;
14381;SDS011;7275;50.328;8.720;2022-11-20T10:18:54;17.30;;;13.93;;
14381;SDS011;7275;50.328;8.720;2022-11-20T10:21:35;17.20;;;13.70;;
14381;SDS011;7275;50.328;8.720;2022-11-20T10:24:29;16.97;;;13.27;;
14381;SDS011;7275;50.328;8.720;2022-11-20T10:27:12;15.87;;;12.70;;
14381;SDS011;7275;50.328;8.720;2022-11-20T10:29:56;15.13;;;12.23;;
14381;SDS011;7275;50.328;8.720;2022-11-20T10:32:31;15.03;;;12.43;;
14381;SDS011;7275;50.328;8.720;2022-11-20T10:35:05;16.83;;;12.97;;
14381;SDS011;7275;50.328;8.720;2022-11-20T10:37:44;16.93;;;13.73;;
14381;SDS011;7275;50.328;8.720;2022-11-20T10:40:18;16.63;;;13.80;;
14381;SDS011;7275;50.328;8.720;2022-11-20T10:42:50;18.03;;;14.03;;
14381;SDS011;7275;50.328;8.720;2022-11-20T10:45:33;16.57;;;13.10;;
14381;SDS011;7275;50.328;8.720;2022-11-20T10:48:14;17.43;;;13.70;;
14381;SDS011;7275;50.328;8.720;2022-11-20T10:50:47;15.87;;;12.73;;
14381;SDS011;7275;50.328;8.720;2022-11-20T10:53:28;15.40;;;12.50;;
14381;SDS011;7275;50.328;8.720;2022-11-20T10:56:09;16.17;;;13.33;;
14381;SDS011;7275;50.328;8.720;2022-11-20T10:58:45;14.73;;;12.23;;
14381;SDS011;7275;50.328;8.720;2022-11-20T11:01:23;14.90;;;12.03;;
14381;SDS011;7275;50.328;8.720;2022-11-20T11:03:53;15.00;;;12.00;;
14381;SDS011;7275;50.328;8.720;2022-11-20T11:06:23;16.43;;;13.37;;
14381;SDS011;7275;50.328;8.720;2022-11-20T11:08:58;15.50;;;12.60;;
14381;SDS011;7275;50.328;8.720;2022-11-20T11:11:30;16.10;;;13.07;;
14381;SDS011;7275;50.328;8.720;2022-11-20T11:14:04;14.13;;;11.80;;
14381;SDS011;7275;50.328;8.720;2022-11-20T11:16:33;13.10;;;11.07;;
14381;SDS011;7275;50.328;8.720;2022-11-20T11:19:05;15.43;;;11.93;;
14381;SDS011;7275;50.328;8.720;2022-11-20T11:21:33;16.07;;;12.20;;
14381;SDS011;7275;50.328;8.720;2022-11-20T11:24:02;13.33;;;11.57;;
14381;SDS011;7275;50.328;8.720;2022-11-20T11:26:52;14.90;;;12.27;;
14381;SDS011;7275;50.328;8.720;2022-11-20T11:29:23;13.33;;;11.90;;
14381;SDS011;7275;50.328;8.720;2022-11-20T11:32:03;14.90;;;12.10;;
14381;SDS011;7275;50.328;8.720;2022-11-20T11:34:32;14.13;;;11.13;;
14381;SDS011;7275;50.328;8.720;2022-11-20T11:37:00;12.40;;;10.90;;
14381;SDS011;7275;50.328;8.720;2022-11-20T11:39:31;15.23;;;12.87;;
14381;SDS011;7275;50.328;8.720;2022-11-20T11:42:00;14.80;;;12.23;;
14381;SDS011;7275;50.328;8.720;2022-11-20T11:44:28;15.27;;;12.60;;
14381;SDS011;7275;50.328;8.720;2022-11-20T11:47:21;16.93;;;13.20;;
14381;SDS011;7275;50.328;8.720;2022-11-20T11:50:00;15.63;;;13.03;;
14381;SDS011;7275;50.328;8.720;2022-11-20T11:52:29;16.33;;;13.37;;
14381;SDS011;7275;50.328;8.720;2022-11-20T11:55:03;16.17;;;12.40;;
14381;SDS011;7275;50.328;8.720;2022-11-20T11:57:39;16.37;;;12.63;;
14381;SDS011;7275;50.328;8.720;2022-11-20T12:00:14;14.30;;;11.63;;
14381;SDS011;7275;50.328;8.720;2022-11-20T12:02:49;14.53;;;12.13;;
14381;SDS011;7275;50.328;8.720;2022-11-20T12:05:25;14.43;;;12.23;;
14381;SDS011;7275;50.328;8.720;2022-11-20T12:07:56;14.50;;;11.60;;
14381;SDS011;7275;50.328;8.720;2022-11-20T12:10:38;18.03;;;12.97;;
14381;SDS011;7275;50.328;8.720;2022-11-20T12:13:14;13.93;;;11.23;;
14381;SDS011;7275;50.328;8.720;2022-11-20T12:15:48;13.33;;;10.87;;
14381;SDS011;7275;50.328;8.720;2022-11-20T12:18:18;15.63;;;12.67;;
14381;SDS011;7275;50.328;8.720;2022-11-20T12:20:51;14.23;;;11.93;;
14381;SDS011;7275;50.328;8.720;2022-11-20T12:23:31;13.87;;;11.43;;
14381;SDS011;7275;50.328;8.720;2022-11-20T12:26:13;12.33;;;10.23;;
14381;SDS011;7275;50.328;8.720;2022-11-20T12:28:57;13.17;;;10.60;;
14381;SDS011;7275;50.328;8.720;2022-11-20T12:31:42;12.73;;;10.20;;
14381;SDS011;7275;50.328;8.720;2022-11-20T12:34:26;10.10;;;9.10;;
14381;SDS011;7275;50.328;8.720;2022-11-20T12:37:14;12.40;;;9.60;;
14381;SDS011;7275;50.328;8.720;2022-11-20T12:39:53;11.10;;;9.30;;
14381;SDS011;7275;50.328;8.720;2022-11-20T12:42:38;11.50;;;9.77;;
14381;SDS011;7275;50.328;8.720;2022-11-20T12:45:53;12.10;;;10.27;;
14381;SDS011;7275;50.328;8.720;2022-11-20T12:48:39;12.00;;;10.37;;
14381;SDS011;7275;50.328;8.720;2022-11-20T12:51:24;12.93;;;10.27;;
14381;SDS011;7275;50.328;8.720;2022-11-20T12:54:07;13.03;;;10.97;;
14381;SDS011;7275;50.328;8.720;2022-11-20T12:56:52;13.30;;;10.77;;
14381;SDS011;7275;50.328;8.720;2022-11-20T12:59:33;12.90;;;11.00;;
14381;SDS011;7275;50.328;8.720;2022-11-20T13:02:17;12.30;;;10.47;;
14381;SDS011;7275;50.328;8.720;2022-11-20T13:04:57;13.40;;;11.60;;
14381;SDS011;7275;50.328;8.720;2022-11-20T13:07:34;14.00;;;11.13;;
14381;SDS011;7275;50.328;8.720;2022-11-20T13:10:02;14.27;;;11.73;;
14381;SDS011;7275;50.328;8.720;2022-11-20T13:12:40;12.63;;;11.07;;
14381;SDS011;7275;50.328;8.720;2022-11-20T13:15:15;12.37;;;10.43;;
14381;SDS011;7275;50.328;8.720;2022-11-20T13:17:54;13.90;;;11.23;;
14381;SDS011;7275;50.328;8.720;2022-11-20T13:20:25;14.67;;;11.80;;
14381;SDS011;7275;50.328;8.720;2022-11-20T13:22:55;13.23;;;10.37;;
14381;SDS011;7275;50.328;8.720;2022-11-20T13:25:25;15.20;;;11.97;;
14381;SDS011;7275;50.328;8.720;2022-11-20T13:27:54;13.60;;;11.53;;
14381;SDS011;7275;50.328;8.720;2022-11-20T13:30:23;14.97;;;11.87;;
14381;SDS011;7275;50.328;8.720;2022-11-20T13:32:53;15.73;;;12.13;;
14381;SDS011;7275;50.328;8.720;2022-11-20T13:35:29;14.50;;;11.13;;
14381;SDS011;7275;50.328;8.720;2022-11-20T13:38:00;15.40;;;11.63;;
14381;SDS011;7275;50.328;8.720;2022-11-20T13:40:30;14.53;;;12.20;;
14381;SDS011;7275;50.328;8.720;2022-11-20T13:43:02;15.87;;;11.80;;
14381;SDS011;7275;50.328;8.720;2022-11-20T13:45:37;15.77;;;11.97;;
14381;SDS011;7275;50.328;8.720;2022-11-20T13:48:19;15.67;;;12.40;;
14381;SDS011;7275;50.328;8.720;2022-11-20T13:50:52;14.83;;;11.80;;
14381;SDS011;7275;50.328;8.720;2022-11-20T13:53:31;16.73;;;12.73;;
14381;SDS011;7275;50.328;8.720;2022-11-20T13:56:15;15.27;;;12.00;;
14381;SDS011;7275;50.328;8.720;2022-11-20T13:58:53;16.50;;;12.50;;
14381;SDS011;7275;50.328;8.720;2022-11-20T14:01:31;15.60;;;12.23;;
14381;SDS011;7275;50.328;8.720;2022-11-20T14:04:05;17.67;;;13.17;;
14381;SDS011;7275;50.328;8.720;2022-11-20T14:06:41;16.50;;;12.53;;
14381;SDS011;7275;50.328;8.720;2022-11-20T14:09:12;17.43;;;13.07;;
14381;SDS011;7275;50.328;8.720;2022-11-20T14:11:51;17.20;;;12.70;;
14381;SDS011;7275;50.328;8.720;2022-11-20T14:14:20;17.17;;;12.50;;
14381;SDS011;7275;50.328;8.720;2022-11-20T14:16:49;15.63;;;12.00;;
14381;SDS011;7275;50.328;8.720;2022-11-20T14:19:25;17.60;;;12.50;;
14381;SDS011;7275;50.328;8.720;2022-11-20T14:22:16;17.37;;;12.73;;
14381;SDS011;7275;50.328;8.720;2022-11-20T14:24:48;16.03;;;12.53;;
14381;SDS011;7275;50.328;8.720;2022-11-20T14:27:27;15.60;;;11.60;;
14381;SDS011;7275;50.328;8.720;2022-11-20T14:29:54;17.20;;;12.67;;
14381;SDS011;7275;50.328;8.720;2022-11-20T14:32:23;17.03;;;12.87;;
14381;SDS011;7275;50.328;8.720;2022-11-20T14:34:55;18.63;;;13.53;;
14381;SDS011;7275;50.328;8.720;2022-11-20T14:37:30;18.77;;;13.47;;
14381;SDS011;7275;50.328;8.720;2022-11-20T14:40:20;17.50;;;13.03;;
14381;SDS011;7275;50.328;8.720;2022-11-20T14:42:49;17.27;;;12.90;;
14381;SDS011;7275;50.328;8.720;2022-11-20T14:45:17;15.63;;;11.93;;
14381;SDS011;7275;50.328;8.720;2022-11-20T14:47:45;16.60;;;12.63;;
14381;SDS011;7275;50.328;8.720;2022-11-20T14:50:15;18.00;;;13.53;;
14381;SDS011;7275;50.328;8.720;2022-11-20T14:52:49;18.90;;;13.50;;
14381;SDS011;7275;50.328;8.720;2022-11-20T14:55:26;16.80;;;12.43;;
14381;SDS011;7275;50.328;8.720;2022-11-20T14:57:55;17.20;;;12.70;;
14381;SDS011;7275;50.328;8.720;2022-11-20T15:00:24;16.83;;;12.33;;
14381;SDS011;7275;50.328;8.720;2022-11-20T15:02:52;15.20;;;11.53;;
14381;SDS011;7275;50.328;8.720;2022-11-20T15:05:21;15.53;;;10.73;;